Bangkok, Thailandia

09:47 AM ICT del 04 Marzo 2015 (GMT +0700)
Khu Khot | Change Station
CLOSE
Current Station
Stazione meteo personale
Location: Pathum Thani, PATHUM THANI
Altitudine: 15 ft
Stazioni meteo nelle vicinanze

Alt. 15 ft 13.96 °N, 100.65 °E | Updated 47 seconds ago

Mostly Cloudy
Molto nuvoloso
88.2 °F
Sembra 105 °F
N
2.2
Vento Variabile Vento da Ovest
Gusts 3.1 mph

Oggi
Massima -- | Minima -- °F
--% Possibilità di precip.
Ieri
Massima -- | Minima -- °F
Precip. -- in
6:32 AM 6:26 PM
Gobba a ponente, 98% visible
Pressione 29.89 in
Visibilità 6.2 miglia
Nuvole Nubi sparse 1500 ft
Molto nuvoloso 30000 ft
Indice di calore 105 °F
Punto di rugiada 80 °F
Umidità 77%
Piovosità 0.11 in
Spessore del manto nevoso Non disponibile.
Raggi UV 4 fuori da 12
Polline Non disponibile.
Qualità dell'aria Non disponibile.
Flu Activity Non disponibile.
METAR VTBD 040230Z 17007KT 130V220 9999 SCT015 BKN300 30/25 Q1012 NOSIG

More Conditions Fewer Conditions

Pressione 29.89 in
Visibilità 6.2 miglia
Nuvole Nubi sparse 1500 ft
Molto nuvoloso 30000 ft
Indice di calore 105 °F
Punto di rugiada 80 °F
Umidità 77%
Piovosità 0.11 in
Spessore del manto nevoso Non disponibile.
Raggi UV 4 fuori da 12
Polline Non disponibile.
Qualità dell'aria Non disponibile.
Flu Activity Non disponibile.
METAR VTBD 040230Z 17007KT 130V220 9999 SCT015 BKN300 30/25 Q1012 NOSIG

More Conditions Fewer Conditions

10-Day Weather Forecast

Almanac

Astronomia

Mar. 04, 2015 Alba Tramonto
Ora attuale
Crepuscolo civile
Crepuscolo nautico
Crepuscolo astronomico
Luna
Estensione della luce visibile
Lunghezza del giorno
Tomorrow will be .
, % of the Moon is Illuminated

Gli estremi di oggi

Massime Regione Minime Regione

Community

WunderPhotos

Upload Photos

1,802,361 foto caricate!

WunderBlogs® & News

Nearby

Qualità dell'aria

  Qualità dell'aria Indice AQ Inquinante
Not available.

Profondità neve

Stazione Profondità Altitudine

Attività sismica

Città  Distanza Mag. Data & Ora
Minimo Magnitudo Mostrato è 2.5.

Temperature delle acque costiere

Località Temperatura

Stazioni meteo nelle vicinanze